sensor_id;sensor_type;location;lat;lon;timestamp;P1;durP1;ratioP1;P2;durP2;ratioP2
27039;SDS011;14589;51.578;7.306;2022-10-18T00:01:57;3.08;;;2.75;;
27039;SDS011;14589;51.578;7.306;2022-10-18T00:04:22;3.47;;;3.17;;
27039;SDS011;14589;51.578;7.306;2022-10-18T00:06:48;4.05;;;3.53;;
27039;SDS011;14589;51.578;7.306;2022-10-18T00:09:15;4.85;;;3.40;;
27039;SDS011;14589;51.578;7.306;2022-10-18T00:11:41;3.70;;;3.13;;
27039;SDS011;14589;51.578;7.306;2022-10-18T00:14:06;4.10;;;3.10;;
27039;SDS011;14589;51.578;7.306;2022-10-18T00:16:32;4.05;;;3.20;;
27039;SDS011;14589;51.578;7.306;2022-10-18T00:18:58;6.60;;;3.72;;
27039;SDS011;14589;51.578;7.306;2022-10-18T00:21:32;5.90;;;3.67;;
27039;SDS011;14589;51.578;7.306;2022-10-18T00:23:58;4.05;;;3.33;;
27039;SDS011;14589;51.578;7.306;2022-10-18T00:26:28;5.60;;;3.75;;
27039;SDS011;14589;51.578;7.306;2022-10-18T00:28:59;4.75;;;3.78;;
27039;SDS011;14589;51.578;7.306;2022-10-18T00:31:33;4.00;;;3.20;;
27039;SDS011;14589;51.578;7.306;2022-10-18T00:34:01;5.18;;;3.45;;
27039;SDS011;14589;51.578;7.306;2022-10-18T00:36:29;4.60;;;3.42;;
27039;SDS011;14589;51.578;7.306;2022-10-18T00:39:00;5.00;;;3.28;;
27039;SDS011;14589;51.578;7.306;2022-10-18T00:41:27;6.32;;;4.00;;
27039;SDS011;14589;51.578;7.306;2022-10-18T00:44:55;7.45;;;4.43;;
27039;SDS011;14589;51.578;7.306;2022-10-18T00:46:48;4.72;;;3.85;;
27039;SDS011;14589;51.578;7.306;2022-10-18T00:51:56;5.65;;;3.90;;
27039;SDS011;14589;51.578;7.306;2022-10-18T00:54:24;6.07;;;3.60;;
27039;SDS011;14589;51.578;7.306;2022-10-18T00:56:50;4.70;;;3.45;;
27039;SDS011;14589;51.578;7.306;2022-10-18T00:59:17;4.57;;;3.53;;
27039;SDS011;14589;51.578;7.306;2022-10-18T01:01:43;4.15;;;3.30;;
27039;SDS011;14589;51.578;7.306;2022-10-18T01:04:09;5.53;;;4.03;;
27039;SDS011;14589;51.578;7.306;2022-10-18T01:06:38;6.47;;;4.68;;
27039;SDS011;14589;51.578;7.306;2022-10-18T01:11:54;8.43;;;4.88;;
27039;SDS011;14589;51.578;7.306;2022-10-18T01:17:29;6.68;;;4.43;;
27039;SDS011;14589;51.578;7.306;2022-10-18T01:22:43;7.28;;;4.28;;
27039;SDS011;14589;51.578;7.306;2022-10-18T01:25:18;7.20;;;4.38;;
27039;SDS011;14589;51.578;7.306;2022-10-18T01:27:58;7.07;;;4.43;;
27039;SDS011;14589;51.578;7.306;2022-10-18T01:30:37;6.50;;;4.40;;
27039;SDS011;14589;51.578;7.306;2022-10-18T01:33:08;11.73;;;6.13;;
27039;SDS011;14589;51.578;7.306;2022-10-18T01:35:38;7.80;;;4.78;;
27039;SDS011;14589;51.578;7.306;2022-10-18T01:38:07;8.82;;;5.65;;
27039;SDS011;14589;51.578;7.306;2022-10-18T01:40:35;6.47;;;4.20;;
27039;SDS011;14589;51.578;7.306;2022-10-18T01:43:02;6.15;;;4.22;;
27039;SDS011;14589;51.578;7.306;2022-10-18T01:45:28;5.25;;;3.80;;
27039;SDS011;14589;51.578;7.306;2022-10-18T01:47:54;6.03;;;3.78;;
27039;SDS011;14589;51.578;7.306;2022-10-18T01:50:30;4.05;;;3.30;;
27039;SDS011;14589;51.578;7.306;2022-10-18T01:52:57;5.25;;;3.85;;
27039;SDS011;14589;51.578;7.306;2022-10-18T01:58:21;5.43;;;3.63;;
27039;SDS011;14589;51.578;7.306;2022-10-18T02:01:40;5.68;;;3.08;;
27039;SDS011;14589;51.578;7.306;2022-10-18T02:03:50;5.03;;;3.55;;
27039;SDS011;14589;51.578;7.306;2022-10-18T02:06:21;5.75;;;3.67;;
27039;SDS011;14589;51.578;7.306;2022-10-18T02:08:53;3.95;;;3.08;;
27039;SDS011;14589;51.578;7.306;2022-10-18T02:11:25;4.53;;;3.17;;
27039;SDS011;14589;51.578;7.306;2022-10-18T02:13:59;4.38;;;3.45;;
27039;SDS011;14589;51.578;7.306;2022-10-18T02:16:34;4.43;;;3.22;;
27039;SDS011;14589;51.578;7.306;2022-10-18T02:19:04;4.90;;;3.38;;
27039;SDS011;14589;51.578;7.306;2022-10-18T02:21:36;4.22;;;3.30;;
27039;SDS011;14589;51.578;7.306;2022-10-18T02:24:02;5.07;;;3.20;;
27039;SDS011;14589;51.578;7.306;2022-10-18T02:26:29;6.22;;;3.42;;
27039;SDS011;14589;51.578;7.306;2022-10-18T02:28:55;4.18;;;3.17;;
27039;SDS011;14589;51.578;7.306;2022-10-18T02:31:24;3.17;;;2.78;;
27039;SDS011;14589;51.578;7.306;2022-10-18T02:33:56;3.78;;;3.10;;
27039;SDS011;14589;51.578;7.306;2022-10-18T02:36:34;4.25;;;2.53;;
27039;SDS011;14589;51.578;7.306;2022-10-18T02:39:03;3.00;;;2.67;;
27039;SDS011;14589;51.578;7.306;2022-10-18T02:41:32;3.78;;;2.75;;
27039;SDS011;14589;51.578;7.306;2022-10-18T02:43:58;5.43;;;2.88;;
27039;SDS011;14589;51.578;7.306;2022-10-18T02:46:23;4.45;;;3.15;;
27039;SDS011;14589;51.578;7.306;2022-10-18T02:48:49;4.20;;;2.70;;
27039;SDS011;14589;51.578;7.306;2022-10-18T02:51:15;7.22;;;3.15;;
27039;SDS011;14589;51.578;7.306;2022-10-18T02:53:40;3.72;;;2.90;;
27039;SDS011;14589;51.578;7.306;2022-10-18T02:56:06;4.75;;;2.92;;
27039;SDS011;14589;51.578;7.306;2022-10-18T02:58:32;5.07;;;2.70;;
27039;SDS011;14589;51.578;7.306;2022-10-18T03:00:57;3.47;;;2.22;;
27039;SDS011;14589;51.578;7.306;2022-10-18T03:03:23;5.75;;;2.72;;
27039;SDS011;14589;51.578;7.306;2022-10-18T03:05:48;3.10;;;2.42;;
27039;SDS011;14589;51.578;7.306;2022-10-18T03:08:14;2.97;;;2.42;;
27039;SDS011;14589;51.578;7.306;2022-10-18T03:10:42;4.97;;;2.42;;
27039;SDS011;14589;51.578;7.306;2022-10-18T03:13:08;3.28;;;2.58;;
27039;SDS011;14589;51.578;7.306;2022-10-18T03:15:33;3.45;;;2.35;;
27039;SDS011;14589;51.578;7.306;2022-10-18T03:17:59;2.63;;;2.20;;
27039;SDS011;14589;51.578;7.306;2022-10-18T03:20:24;2.45;;;2.00;;
27039;SDS011;14589;51.578;7.306;2022-10-18T03:22:49;6.07;;;2.60;;
27039;SDS011;14589;51.578;7.306;2022-10-18T03:25:15;3.42;;;2.47;;
27039;SDS011;14589;51.578;7.306;2022-10-18T03:27:40;2.92;;;2.63;;
27039;SDS011;14589;51.578;7.306;2022-10-18T03:30:06;4.22;;;2.80;;
27039;SDS011;14589;51.578;7.306;2022-10-18T03:32:32;3.45;;;2.30;;
27039;SDS011;14589;51.578;7.306;2022-10-18T03:34:58;3.50;;;2.30;;
27039;SDS011;14589;51.578;7.306;2022-10-18T03:37:23;3.83;;;2.85;;
27039;SDS011;14589;51.578;7.306;2022-10-18T03:39:50;4.13;;;2.38;;
27039;SDS011;14589;51.578;7.306;2022-10-18T03:42:15;2.67;;;2.40;;
27039;SDS011;14589;51.578;7.306;2022-10-18T03:44:40;3.70;;;2.75;;
27039;SDS011;14589;51.578;7.306;2022-10-18T03:47:06;2.97;;;2.58;;
27039;SDS011;14589;51.578;7.306;2022-10-18T03:49:31;3.33;;;2.55;;
27039;SDS011;14589;51.578;7.306;2022-10-18T03:51:56;3.83;;;2.58;;
27039;SDS011;14589;51.578;7.306;2022-10-18T03:54:22;3.58;;;2.55;;
27039;SDS011;14589;51.578;7.306;2022-10-18T03:56:47;2.53;;;2.17;;
27039;SDS011;14589;51.578;7.306;2022-10-18T03:59:12;3.20;;;2.63;;
27039;SDS011;14589;51.578;7.306;2022-10-18T04:01:38;2.47;;;2.15;;
27039;SDS011;14589;51.578;7.306;2022-10-18T04:04:03;3.53;;;2.35;;
27039;SDS011;14589;51.578;7.306;2022-10-18T04:06:29;4.05;;;2.97;;
27039;SDS011;14589;51.578;7.306;2022-10-18T04:08:54;3.47;;;2.72;;
27039;SDS011;14589;51.578;7.306;2022-10-18T04:11:19;3.08;;;2.33;;
27039;SDS011;14589;51.578;7.306;2022-10-18T04:13:49;3.92;;;2.67;;
27039;SDS011;14589;51.578;7.306;2022-10-18T04:16:16;3.92;;;2.30;;
27039;SDS011;14589;51.578;7.306;2022-10-18T04:18:47;2.78;;;2.40;;
27039;SDS011;14589;51.578;7.306;2022-10-18T04:21:13;2.55;;;2.10;;
27039;SDS011;14589;51.578;7.306;2022-10-18T04:23:41;2.65;;;2.40;;
27039;SDS011;14589;51.578;7.306;2022-10-18T04:26:06;3.17;;;2.20;;
27039;SDS011;14589;51.578;7.306;2022-10-18T04:28:32;3.65;;;2.53;;
27039;SDS011;14589;51.578;7.306;2022-10-18T04:30:58;2.83;;;2.38;;
27039;SDS011;14589;51.578;7.306;2022-10-18T04:33:23;3.25;;;2.35;;
27039;SDS011;14589;51.578;7.306;2022-10-18T04:35:50;2.30;;;2.10;;
27039;SDS011;14589;51.578;7.306;2022-10-18T04:38:16;3.95;;;2.50;;
27039;SDS011;14589;51.578;7.306;2022-10-18T04:40:41;2.97;;;2.38;;
27039;SDS011;14589;51.578;7.306;2022-10-18T04:43:07;3.50;;;2.63;;
27039;SDS011;14589;51.578;7.306;2022-10-18T04:45:32;4.70;;;3.17;;
27039;SDS011;14589;51.578;7.306;2022-10-18T04:47:58;2.92;;;2.55;;
27039;SDS011;14589;51.578;7.306;2022-10-18T04:50:23;3.40;;;2.55;;
27039;SDS011;14589;51.578;7.306;2022-10-18T04:52:50;5.50;;;2.78;;
27039;SDS011;14589;51.578;7.306;2022-10-18T04:55:17;5.70;;;3.10;;
27039;SDS011;14589;51.578;7.306;2022-10-18T04:57:46;4.13;;;2.65;;
27039;SDS011;14589;51.578;7.306;2022-10-18T05:00:12;4.72;;;3.05;;
27039;SDS011;14589;51.578;7.306;2022-10-18T05:02:38;4.57;;;2.78;;
27039;SDS011;14589;51.578;7.306;2022-10-18T05:05:03;3.97;;;3.00;;
27039;SDS011;14589;51.578;7.306;2022-10-18T05:07:29;4.38;;;2.97;;
27039;SDS011;14589;51.578;7.306;2022-10-18T05:09:54;4.30;;;2.95;;
27039;SDS011;14589;51.578;7.306;2022-10-18T05:12:20;3.78;;;2.78;;
27039;SDS011;14589;51.578;7.306;2022-10-18T05:14:46;3.88;;;2.35;;
27039;SDS011;14589;51.578;7.306;2022-10-18T05:17:12;2.95;;;2.47;;
27039;SDS011;14589;51.578;7.306;2022-10-18T05:19:37;3.53;;;2.80;;
27039;SDS011;14589;51.578;7.306;2022-10-18T05:22:02;10.48;;;6.65;;
27039;SDS011;14589;51.578;7.306;2022-10-18T05:24:35;6.88;;;4.75;;
27039;SDS011;14589;51.578;7.306;2022-10-18T05:27:00;7.55;;;4.22;;
27039;SDS011;14589;51.578;7.306;2022-10-18T05:29:27;5.22;;;3.75;;
27039;SDS011;14589;51.578;7.306;2022-10-18T05:32:01;5.18;;;3.30;;
27039;SDS011;14589;51.578;7.306;2022-10-18T05:34:29;5.53;;;3.42;;
27039;SDS011;14589;51.578;7.306;2022-10-18T05:36:57;6.30;;;4.30;;
27039;SDS011;14589;51.578;7.306;2022-10-18T05:39:26;6.55;;;3.78;;
27039;SDS011;14589;51.578;7.306;2022-10-18T05:41:52;6.35;;;3.55;;
27039;SDS011;14589;51.578;7.306;2022-10-18T05:44:17;8.30;;;4.50;;
27039;SDS011;14589;51.578;7.306;2022-10-18T05:46:43;4.80;;;3.85;;
27039;SDS011;14589;51.578;7.306;2022-10-18T05:49:11;7.38;;;3.90;;
27039;SDS011;14589;51.578;7.306;2022-10-18T05:51:37;4.40;;;3.28;;
27039;SDS011;14589;51.578;7.306;2022-10-18T05:54:03;5.35;;;3.53;;
27039;SDS011;14589;51.578;7.306;2022-10-18T05:58:59;5.45;;;3.55;;
27039;SDS011;14589;51.578;7.306;2022-10-18T06:01:24;4.47;;;3.05;;
27039;SDS011;14589;51.578;7.306;2022-10-18T06:03:56;4.30;;;3.00;;
27039;SDS011;14589;51.578;7.306;2022-10-18T06:06:22;3.42;;;3.03;;
27039;SDS011;14589;51.578;7.306;2022-10-18T06:08:47;5.55;;;3.42;;
27039;SDS011;14589;51.578;7.306;2022-10-18T06:11:18;6.63;;;3.80;;
27039;SDS011;14589;51.578;7.306;2022-10-18T06:13:45;8.73;;;5.65;;
27039;SDS011;14589;51.578;7.306;2022-10-18T06:16:12;11.13;;;6.07;;
27039;SDS011;14589;51.578;7.306;2022-10-18T06:18:38;10.23;;;5.57;;
27039;SDS011;14589;51.578;7.306;2022-10-18T06:21:06;14.45;;;7.38;;
27039;SDS011;14589;51.578;7.306;2022-10-18T06:23:32;11.18;;;5.75;;
27039;SDS011;14589;51.578;7.306;2022-10-18T06:25:59;7.35;;;4.90;;
27039;SDS011;14589;51.578;7.306;2022-10-18T06:28:26;7.15;;;4.70;;
27039;SDS011;14589;51.578;7.306;2022-10-18T06:30:52;7.57;;;4.15;;
27039;SDS011;14589;51.578;7.306;2022-10-18T06:33:22;6.13;;;3.90;;
27039;SDS011;14589;51.578;7.306;2022-10-18T06:35:58;6.80;;;3.80;;
27039;SDS011;14589;51.578;7.306;2022-10-18T06:38:26;5.95;;;3.67;;
27039;SDS011;14589;51.578;7.306;2022-10-18T06:40:52;7.80;;;3.92;;
27039;SDS011;14589;51.578;7.306;2022-10-18T06:43:20;6.55;;;4.15;;
27039;SDS011;14589;51.578;7.306;2022-10-18T06:45:45;4.68;;;3.17;;
27039;SDS011;14589;51.578;7.306;2022-10-18T06:48:13;6.85;;;4.13;;
27039;SDS011;14589;51.578;7.306;2022-10-18T06:50:38;6.20;;;3.75;;
27039;SDS011;14589;51.578;7.306;2022-10-18T06:53:04;8.30;;;4.63;;
27039;SDS011;14589;51.578;7.306;2022-10-18T06:55:32;7.43;;;4.40;;
27039;SDS011;14589;51.578;7.306;2022-10-18T06:57:58;6.60;;;3.83;;
27039;SDS011;14589;51.578;7.306;2022-10-18T07:00:23;6.80;;;4.60;;
27039;SDS011;14589;51.578;7.306;2022-10-18T07:02:49;10.05;;;4.78;;
27039;SDS011;14589;51.578;7.306;2022-10-18T07:05:14;10.20;;;5.30;;
27039;SDS011;14589;51.578;7.306;2022-10-18T07:07:40;8.73;;;4.28;;
27039;SDS011;14589;51.578;7.306;2022-10-18T07:10:05;6.68;;;4.38;;
27039;SDS011;14589;51.578;7.306;2022-10-18T07:12:32;8.63;;;4.93;;
27039;SDS011;14589;51.578;7.306;2022-10-18T07:15:00;8.80;;;4.35;;
27039;SDS011;14589;51.578;7.306;2022-10-18T07:17:26;8.65;;;5.10;;
27039;SDS011;14589;51.578;7.306;2022-10-18T07:19:55;14.45;;;7.32;;
27039;SDS011;14589;51.578;7.306;2022-10-18T07:22:21;24.08;;;10.77;;
27039;SDS011;14589;51.578;7.306;2022-10-18T07:24:46;21.38;;;8.95;;
27039;SDS011;14589;51.578;7.306;2022-10-18T07:27:14;21.20;;;10.13;;
27039;SDS011;14589;51.578;7.306;2022-10-18T07:29:41;16.77;;;7.95;;
27039;SDS011;14589;51.578;7.306;2022-10-18T07:32:06;14.10;;;6.97;;
27039;SDS011;14589;51.578;7.306;2022-10-18T07:34:33;15.48;;;8.10;;
27039;SDS011;14589;51.578;7.306;2022-10-18T07:37:00;14.98;;;7.28;;
27039;SDS011;14589;51.578;7.306;2022-10-18T07:39:28;18.35;;;9.38;;
27039;SDS011;14589;51.578;7.306;2022-10-18T07:41:54;27.73;;;12.07;;
27039;SDS011;14589;51.578;7.306;2022-10-18T07:44:20;19.23;;;9.23;;
27039;SDS011;14589;51.578;7.306;2022-10-18T07:46:45;26.85;;;11.25;;
27039;SDS011;14589;51.578;7.306;2022-10-18T07:49:12;22.55;;;10.65;;
27039;SDS011;14589;51.578;7.306;2022-10-18T07:51:39;27.48;;;12.60;;
27039;SDS011;14589;51.578;7.306;2022-10-18T07:54:04;30.70;;;14.60;;
27039;SDS011;14589;51.578;7.306;2022-10-18T07:56:30;25.95;;;11.77;;
27039;SDS011;14589;51.578;7.306;2022-10-18T07:58:59;28.52;;;13.30;;
27039;SDS011;14589;51.578;7.306;2022-10-18T08:01:26;40.00;;;15.88;;
27039;SDS011;14589;51.578;7.306;2022-10-18T08:03:52;57.63;;;21.25;;
27039;SDS011;14589;51.578;7.306;2022-10-18T08:06:21;62.53;;;22.00;;
27039;SDS011;14589;51.578;7.306;2022-10-18T08:08:50;63.97;;;23.33;;
27039;SDS011;14589;51.578;7.306;2022-10-18T08:11:31;61.92;;;23.13;;
27039;SDS011;14589;51.578;7.306;2022-10-18T08:13:57;82.93;;;26.08;;
27039;SDS011;14589;51.578;7.306;2022-10-18T08:16:24;68.07;;;25.55;;
27039;SDS011;14589;51.578;7.306;2022-10-18T08:18:52;65.97;;;24.73;;
27039;SDS011;14589;51.578;7.306;2022-10-18T08:21:24;62.13;;;23.52;;
27039;SDS011;14589;51.578;7.306;2022-10-18T08:24:03;79.03;;;27.08;;
27039;SDS011;14589;51.578;7.306;2022-10-18T08:26:29;72.28;;;26.13;;
27039;SDS011;14589;51.578;7.306;2022-10-18T08:28:55;64.10;;;24.67;;
27039;SDS011;14589;51.578;7.306;2022-10-18T08:31:20;70.18;;;26.80;;
27039;SDS011;14589;51.578;7.306;2022-10-18T08:33:47;59.63;;;22.60;;
27039;SDS011;14589;51.578;7.306;2022-10-18T08:36:15;61.53;;;23.45;;
27039;SDS011;14589;51.578;7.306;2022-10-18T08:38:46;59.53;;;23.70;;
27039;SDS011;14589;51.578;7.306;2022-10-18T08:46:49;61.95;;;24.58;;
27039;SDS011;14589;51.578;7.306;2022-10-18T08:49:20;58.67;;;23.02;;
27039;SDS011;14589;51.578;7.306;2022-10-18T08:51:59;55.53;;;24.07;;
27039;SDS011;14589;51.578;7.306;2022-10-18T08:56:58;46.35;;;20.35;;
27039;SDS011;14589;51.578;7.306;2022-10-18T08:59:25;70.40;;;25.13;;
27039;SDS011;14589;51.578;7.306;2022-10-18T09:02:03;65.65;;;25.20;;
27039;SDS011;14589;51.578;7.306;2022-10-18T09:04:51;52.85;;;20.67;;
27039;SDS011;14589;51.578;7.306;2022-10-18T09:07:34;45.92;;;18.60;;
27039;SDS011;14589;51.578;7.306;2022-10-18T09:18:30;60.42;;;23.80;;
27039;SDS011;14589;51.578;7.306;2022-10-18T09:21:04;47.65;;;21.33;;
27039;SDS011;14589;51.578;7.306;2022-10-18T09:26:21;67.50;;;25.63;;
27039;SDS011;14589;51.578;7.306;2022-10-18T09:31:27;60.85;;;24.85;;
27039;SDS011;14589;51.578;7.306;2022-10-18T09:37:03;61.78;;;24.58;;
27039;SDS011;14589;51.578;7.306;2022-10-18T09:39:31;54.58;;;23.65;;
27039;SDS011;14589;51.578;7.306;2022-10-18T09:45:23;54.78;;;21.60;;
27039;SDS011;14589;51.578;7.306;2022-10-18T09:47:57;59.97;;;21.83;;
27039;SDS011;14589;51.578;7.306;2022-10-18T09:53:22;72.25;;;26.52;;
27039;SDS011;14589;51.578;7.306;2022-10-18T09:58:52;54.42;;;22.08;;
27039;SDS011;14589;51.578;7.306;2022-10-18T10:01:29;56.85;;;22.77;;
27039;SDS011;14589;51.578;7.306;2022-10-18T10:03:57;56.60;;;24.27;;
27039;SDS011;14589;51.578;7.306;2022-10-18T10:06:31;58.65;;;24.25;;
27039;SDS011;14589;51.578;7.306;2022-10-18T10:09:16;54.78;;;23.00;;
27039;SDS011;14589;51.578;7.306;2022-10-18T10:11:48;55.63;;;25.33;;
27039;SDS011;14589;51.578;7.306;2022-10-18T10:14:16;56.40;;;23.75;;
27039;SDS011;14589;51.578;7.306;2022-10-18T10:16:47;57.15;;;24.50;;
27039;SDS011;14589;51.578;7.306;2022-10-18T10:19:27;54.65;;;23.58;;
27039;SDS011;14589;51.578;7.306;2022-10-18T10:22:04;53.30;;;24.88;;
27039;SDS011;14589;51.578;7.306;2022-10-18T10:29:56;36.47;;;19.45;;
27039;SDS011;14589;51.578;7.306;2022-10-18T10:32:24;23.50;;;15.35;;
27039;SDS011;14589;51.578;7.306;2022-10-18T10:34:51;25.80;;;15.77;;
27039;SDS011;14589;51.578;7.306;2022-10-18T10:40:06;21.17;;;13.52;;
27039;SDS011;14589;51.578;7.306;2022-10-18T10:42:59;25.63;;;14.63;;
27039;SDS011;14589;51.578;7.306;2022-10-18T10:45:37;23.83;;;14.00;;
27039;SDS011;14589;51.578;7.306;2022-10-18T10:48:12;21.27;;;12.48;;
27039;SDS011;14589;51.578;7.306;2022-10-18T10:55:54;23.60;;;13.02;;
27039;SDS011;14589;51.578;7.306;2022-10-18T10:58:25;22.33;;;14.50;;
27039;SDS011;14589;51.578;7.306;2022-10-18T11:00:54;19.73;;;13.15;;
27039;SDS011;14589;51.578;7.306;2022-10-18T11:03:22;18.45;;;11.43;;
27039;SDS011;14589;51.578;7.306;2022-10-18T11:05:52;18.88;;;12.13;;
27039;SDS011;14589;51.578;7.306;2022-10-18T11:08:26;17.63;;;12.40;;
27039;SDS011;14589;51.578;7.306;2022-10-18T11:14:13;17.35;;;12.13;;
27039;SDS011;14589;51.578;7.306;2022-10-18T11:19:28;12.50;;;9.02;;
27039;SDS011;14589;51.578;7.306;2022-10-18T11:21:59;14.83;;;9.57;;
27039;SDS011;14589;51.578;7.306;2022-10-18T11:24:27;11.32;;;8.63;;
27039;SDS011;14589;51.578;7.306;2022-10-18T11:27:00;13.15;;;10.40;;
27039;SDS011;14589;51.578;7.306;2022-10-18T11:35:41;15.80;;;7.45;;
27039;SDS011;14589;51.578;7.306;2022-10-18T11:46:20;11.00;;;5.72;;
27039;SDS011;14589;51.578;7.306;2022-10-18T11:49:14;11.38;;;5.47;;
27039;SDS011;14589;51.578;7.306;2022-10-18T11:54:32;13.98;;;5.53;;
27039;SDS011;14589;51.578;7.306;2022-10-18T12:02:56;12.57;;;5.80;;
27039;SDS011;14589;51.578;7.306;2022-10-18T12:05:37;9.43;;;5.13;;
27039;SDS011;14589;51.578;7.306;2022-10-18T12:08:12;9.65;;;5.38;;
27039;SDS011;14589;51.578;7.306;2022-10-18T12:10:40;12.02;;;5.70;;
27039;SDS011;14589;51.578;7.306;2022-10-18T12:13:07;11.77;;;5.57;;
27039;SDS011;14589;51.578;7.306;2022-10-18T12:15:38;10.18;;;5.18;;
27039;SDS011;14589;51.578;7.306;2022-10-18T12:18:20;7.50;;;5.00;;
27039;SDS011;14589;51.578;7.306;2022-10-18T12:20:55;7.68;;;5.15;;
27039;SDS011;14589;51.578;7.306;2022-10-18T12:23:41;8.02;;;4.63;;
27039;SDS011;14589;51.578;7.306;2022-10-18T12:26:10;7.20;;;3.85;;
27039;SDS011;14589;51.578;7.306;2022-10-18T12:34:36;11.38;;;5.38;;
27039;SDS011;14589;51.578;7.306;2022-10-18T12:42:33;11.65;;;5.50;;
27039;SDS011;14589;51.578;7.306;2022-10-18T12:45:27;8.45;;;5.22;;
27039;SDS011;14589;51.578;7.306;2022-10-18T12:47:51;10.55;;;5.03;;
27039;SDS011;14589;51.578;7.306;2022-10-18T12:50:39;11.75;;;5.40;;
27039;SDS011;14589;51.578;7.306;2022-10-18T12:53:04;9.82;;;5.28;;
27039;SDS011;14589;51.578;7.306;2022-10-18T12:55:39;11.45;;;5.72;;
27039;SDS011;14589;51.578;7.306;2022-10-18T13:06:08;9.68;;;4.90;;
27039;SDS011;14589;51.578;7.306;2022-10-18T13:18:56;11.32;;;4.35;;
27039;SDS011;14589;51.578;7.306;2022-10-18T13:41:29;8.60;;;2.97;;
27039;SDS011;14589;51.578;7.306;2022-10-18T13:44:31;5.78;;;1.98;;
27039;SDS011;14589;51.578;7.306;2022-10-18T14:20:02;9.35;;;2.30;;
27039;SDS011;14589;51.578;7.306;2022-10-18T14:25:40;9.98;;;2.47;;
27039;SDS011;14589;51.578;7.306;2022-10-18T14:28:14;8.65;;;1.80;;
27039;SDS011;14589;51.578;7.306;2022-10-18T14:30:57;8.32;;;1.98;;
27039;SDS011;14589;51.578;7.306;2022-10-18T14:33:26;5.00;;;1.67;;
27039;SDS011;14589;51.578;7.306;2022-10-18T14:38:46;6.90;;;2.22;;
27039;SDS011;14589;51.578;7.306;2022-10-18T14:41:21;9.32;;;2.03;;
27039;SDS011;14589;51.578;7.306;2022-10-18T14:44:16;8.43;;;1.70;;
27039;SDS011;14589;51.578;7.306;2022-10-18T14:46:44;7.43;;;1.65;;
27039;SDS011;14589;51.578;7.306;2022-10-18T14:49:14;6.78;;;1.65;;
27039;SDS011;14589;51.578;7.306;2022-10-18T14:51:49;7.90;;;1.40;;
27039;SDS011;14589;51.578;7.306;2022-10-18T14:54:20;6.07;;;1.60;;
27039;SDS011;14589;51.578;7.306;2022-10-18T14:56:49;3.92;;;1.38;;
27039;SDS011;14589;51.578;7.306;2022-10-18T14:59:20;6.75;;;1.42;;
27039;SDS011;14589;51.578;7.306;2022-10-18T15:01:53;4.97;;;1.33;;
27039;SDS011;14589;51.578;7.306;2022-10-18T15:04:29;6.38;;;1.27;;
27039;SDS011;14589;51.578;7.306;2022-10-18T15:07:05;5.18;;;1.30;;
27039;SDS011;14589;51.578;7.306;2022-10-18T15:09:33;8.52;;;1.90;;
27039;SDS011;14589;51.578;7.306;2022-10-18T15:12:01;3.92;;;1.50;;
27039;SDS011;14589;51.578;7.306;2022-10-18T15:14:28;3.88;;;1.20;;
27039;SDS011;14589;51.578;7.306;2022-10-18T15:16:57;6.55;;;1.27;;
27039;SDS011;14589;51.578;7.306;2022-10-18T15:22:03;7.18;;;1.20;;
27039;SDS011;14589;51.578;7.306;2022-10-18T15:27:11;4.00;;;1.20;;
27039;SDS011;14589;51.578;7.306;2022-10-18T15:29:44;4.63;;;1.15;;
27039;SDS011;14589;51.578;7.306;2022-10-18T15:32:15;6.18;;;1.25;;
27039;SDS011;14589;51.578;7.306;2022-10-18T15:34:44;4.85;;;1.10;;
27039;SDS011;14589;51.578;7.306;2022-10-18T15:37:17;4.45;;;1.33;;
27039;SDS011;14589;51.578;7.306;2022-10-18T15:42:53;5.60;;;1.35;;
27039;SDS011;14589;51.578;7.306;2022-10-18T15:58:21;3.13;;;0.93;;
27039;SDS011;14589;51.578;7.306;2022-10-18T16:00:52;3.42;;;1.00;;
27039;SDS011;14589;51.578;7.306;2022-10-18T16:03:20;6.70;;;1.08;;
27039;SDS011;14589;51.578;7.306;2022-10-18T16:05:53;2.03;;;1.08;;
27039;SDS011;14589;51.578;7.306;2022-10-18T16:08:26;1.45;;;1.10;;
27039;SDS011;14589;51.578;7.306;2022-10-18T16:11:02;3.95;;;1.50;;
27039;SDS011;14589;51.578;7.306;2022-10-18T16:13:29;3.47;;;1.40;;
27039;SDS011;14589;51.578;7.306;2022-10-18T16:15:54;3.28;;;1.45;;
27039;SDS011;14589;51.578;7.306;2022-10-18T16:18:21;5.15;;;1.60;;
27039;SDS011;14589;51.578;7.306;2022-10-18T16:20:47;5.00;;;1.70;;
27039;SDS011;14589;51.578;7.306;2022-10-18T16:23:23;2.67;;;1.40;;
27039;SDS011;14589;51.578;7.306;2022-10-18T16:25:50;3.17;;;1.35;;
27039;SDS011;14589;51.578;7.306;2022-10-18T16:28:18;5.28;;;1.60;;
27039;SDS011;14589;51.578;7.306;2022-10-18T16:31:00;4.28;;;1.48;;
27039;SDS011;14589;51.578;7.306;2022-10-18T16:33:29;2.63;;;1.40;;
27039;SDS011;14589;51.578;7.306;2022-10-18T16:35:59;3.17;;;1.25;;
27039;SDS011;14589;51.578;7.306;2022-10-18T16:38:35;3.90;;;1.25;;
27039;SDS011;14589;51.578;7.306;2022-10-18T16:41:03;2.65;;;1.45;;
27039;SDS011;14589;51.578;7.306;2022-10-18T16:43:38;4.47;;;1.55;;
27039;SDS011;14589;51.578;7.306;2022-10-18T16:46:04;3.40;;;1.27;;
27039;SDS011;14589;51.578;7.306;2022-10-18T16:48:32;4.07;;;1.48;;
27039;SDS011;14589;51.578;7.306;2022-10-18T16:50:58;6.60;;;1.63;;
27039;SDS011;14589;51.578;7.306;2022-10-18T16:53:23;3.90;;;1.48;;
27039;SDS011;14589;51.578;7.306;2022-10-18T16:56:00;2.33;;;1.17;;
27039;SDS011;14589;51.578;7.306;2022-10-18T16:58:27;4.20;;;1.35;;
27039;SDS011;14589;51.578;7.306;2022-10-18T17:00:54;3.10;;;1.48;;
27039;SDS011;14589;51.578;7.306;2022-10-18T17:03:20;5.05;;;1.40;;
27039;SDS011;14589;51.578;7.306;2022-10-18T17:05:45;4.07;;;1.52;;
27039;SDS011;14589;51.578;7.306;2022-10-18T17:08:21;5.38;;;1.40;;
27039;SDS011;14589;51.578;7.306;2022-10-18T17:11:01;2.92;;;1.58;;
27039;SDS011;14589;51.578;7.306;2022-10-18T17:13:27;2.83;;;1.60;;
27039;SDS011;14589;51.578;7.306;2022-10-18T17:15:52;5.10;;;1.80;;
27039;SDS011;14589;51.578;7.306;2022-10-18T17:18:19;4.03;;;2.20;;
27039;SDS011;14589;51.578;7.306;2022-10-18T17:20:47;4.70;;;1.55;;
27039;SDS011;14589;51.578;7.306;2022-10-18T17:23:15;4.97;;;1.90;;
27039;SDS011;14589;51.578;7.306;2022-10-18T17:25:41;4.53;;;2.00;;
27039;SDS011;14589;51.578;7.306;2022-10-18T17:28:11;3.92;;;2.05;;
27039;SDS011;14589;51.578;7.306;2022-10-18T17:30:44;5.70;;;2.25;;
27039;SDS011;14589;51.578;7.306;2022-10-18T17:33:10;5.75;;;2.65;;
27039;SDS011;14589;51.578;7.306;2022-10-18T17:35:37;4.70;;;2.75;;
27039;SDS011;14589;51.578;7.306;2022-10-18T17:38:03;4.93;;;2.97;;
27039;SDS011;14589;51.578;7.306;2022-10-18T17:40:33;7.50;;;2.90;;
27039;SDS011;14589;51.578;7.306;2022-10-18T17:42:59;5.40;;;2.28;;
27039;SDS011;14589;51.578;7.306;2022-10-18T17:45:25;6.13;;;2.58;;
27039;SDS011;14589;51.578;7.306;2022-10-18T17:47:51;6.88;;;2.58;;
27039;SDS011;14589;51.578;7.306;2022-10-18T17:50:16;11.52;;;2.55;;
27039;SDS011;14589;51.578;7.306;2022-10-18T17:52:44;4.93;;;2.45;;
27039;SDS011;14589;51.578;7.306;2022-10-18T17:55:11;5.47;;;2.30;;
27039;SDS011;14589;51.578;7.306;2022-10-18T17:57:40;4.95;;;2.35;;
27039;SDS011;14589;51.578;7.306;2022-10-18T18:00:07;3.67;;;2.22;;
27039;SDS011;14589;51.578;7.306;2022-10-18T18:02:39;9.45;;;2.10;;
27039;SDS011;14589;51.578;7.306;2022-10-18T18:05:05;3.47;;;2.08;;
27039;SDS011;14589;51.578;7.306;2022-10-18T18:07:30;4.30;;;2.10;;
27039;SDS011;14589;51.578;7.306;2022-10-18T18:09:57;3.35;;;1.73;;
27039;SDS011;14589;51.578;7.306;2022-10-18T18:12:23;5.80;;;1.90;;
27039;SDS011;14589;51.578;7.306;2022-10-18T18:14:48;5.07;;;2.38;;
27039;SDS011;14589;51.578;7.306;2022-10-18T18:17:17;4.82;;;2.25;;